sensor_id;sensor_type;location;lat;lon;timestamp;pressure;altitude;pressure_sealevel;temperature;humidity
18819;BME280;9537;45.594;9.294;2024-02-26T00:00:58;98805.06;;;9.32;87.97
18819;BME280;9537;45.594;9.294;2024-02-26T00:01:59;98806.91;;;9.32;87.86
18819;BME280;9537;45.594;9.294;2024-02-26T00:03:01;98802.81;;;9.29;88.26
18819;BME280;9537;45.594;9.294;2024-02-26T00:04:03;98794.91;;;9.29;88.03
18819;BME280;9537;45.594;9.294;2024-02-26T00:05:05;98800.19;;;9.29;88.25
18819;BME280;9537;45.594;9.294;2024-02-26T00:06:07;98799.00;;;9.32;88.67
18819;BME280;9537;45.594;9.294;2024-02-26T00:07:08;98800.19;;;9.29;88.65
18819;BME280;9537;45.594;9.294;2024-02-26T00:08:10;98794.91;;;9.29;88.83
18819;BME280;9537;45.594;9.294;2024-02-26T00:09:10;98794.09;;;9.29;88.77
18819;BME280;9537;45.594;9.294;2024-02-26T00:10:13;98787.00;;;9.29;89.13
18819;BME280;9537;45.594;9.294;2024-02-26T00:11:14;98796.09;;;9.27;88.82
18819;BME280;9537;45.594;9.294;2024-02-26T00:12:16;98787.19;;;9.28;89.19
18819;BME280;9537;45.594;9.294;2024-02-26T00:13:16;98787.19;;;9.28;88.93
18819;BME280;9537;45.594;9.294;2024-02-26T00:14:20;98787.38;;;9.26;88.88
18819;BME280;9537;45.594;9.294;2024-02-26T00:15:20;98781.13;;;9.27;88.75
18819;BME280;9537;45.594;9.294;2024-02-26T00:16:22;98776.19;;;9.24;88.84
18819;BME280;9537;45.594;9.294;2024-02-26T00:17:23;98769.94;;;9.25;88.86
18819;BME280;9537;45.594;9.294;2024-02-26T00:18:25;98776.03;;;9.25;88.93
18819;BME280;9537;45.594;9.294;2024-02-26T00:19:25;98769.75;;;9.27;89.12
18819;BME280;9537;45.594;9.294;2024-02-26T00:20:26;98774.19;;;9.26;88.82
18819;BME280;9537;45.594;9.294;2024-02-26T00:21:28;98765.31;;;9.27;88.99
18819;BME280;9537;45.594;9.294;2024-02-26T00:22:28;98771.56;;;9.26;88.69
18819;BME280;9537;45.594;9.294;2024-02-26T00:23:30;98770.59;;;9.27;88.78
18819;BME280;9537;45.594;9.294;2024-02-26T00:24:31;98775.22;;;9.25;88.86
18819;BME280;9537;45.594;9.294;2024-02-26T00:25:33;98773.56;;;9.24;89.08
18819;BME280;9537;45.594;9.294;2024-02-26T00:26:34;98771.94;;;9.23;88.96
18819;BME280;9537;45.594;9.294;2024-02-26T00:27:34;98765.66;;;9.24;89.01
18819;BME280;9537;45.594;9.294;2024-02-26T00:28:36;98771.13;;;9.22;88.83
18819;BME280;9537;45.594;9.294;2024-02-26T00:29:38;98771.94;;;9.23;89.08
18819;BME280;9537;45.594;9.294;2024-02-26T00:30:40;98760.75;;;9.21;89.14
18819;BME280;9537;45.594;9.294;2024-02-26T00:31:41;98762.22;;;9.23;89.18
18819;BME280;9537;45.594;9.294;2024-02-26T00:32:43;98758.75;;;9.23;89.06
18819;BME280;9537;45.594;9.294;2024-02-26T00:33:43;98761.59;;;9.21;89.32
18819;BME280;9537;45.594;9.294;2024-02-26T00:34:45;98757.94;;;9.22;89.43
18819;BME280;9537;45.594;9.294;2024-02-26T00:35:46;98754.69;;;9.20;89.06
18819;BME280;9537;45.594;9.294;2024-02-26T00:36:47;98752.84;;;9.21;89.30
18819;BME280;9537;45.594;9.294;2024-02-26T00:37:48;98752.03;;;9.20;89.33
18819;BME280;9537;45.594;9.294;2024-02-26T00:38:49;98756.34;;;9.21;89.64
18819;BME280;9537;45.594;9.294;2024-02-26T00:39:52;98751.06;;;9.21;89.30
18819;BME280;9537;45.594;9.294;2024-02-26T00:40:53;98749.41;;;9.20;89.82
18819;BME280;9537;45.594;9.294;2024-02-26T00:41:55;98751.22;;;9.20;89.99
18819;BME280;9537;45.594;9.294;2024-02-26T00:42:56;98748.59;;;9.20;90.35
18819;BME280;9537;45.594;9.294;2024-02-26T00:43:57;98753.06;;;9.19;90.21
18819;BME280;9537;45.594;9.294;2024-02-26T00:45:00;98748.78;;;9.18;90.08
18819;BME280;9537;45.594;9.294;2024-02-26T00:46:02;98758.31;;;9.19;90.45
18819;BME280;9537;45.594;9.294;2024-02-26T00:47:03;98748.59;;;9.20;90.58
18819;BME280;9537;45.594;9.294;2024-02-26T00:48:06;98761.94;;;9.18;90.83
18819;BME280;9537;45.594;9.294;2024-02-26T00:49:07;98747.78;;;9.19;90.79
18819;BME280;9537;45.594;9.294;2024-02-26T00:50:10;98747.16;;;9.17;90.68
18819;BME280;9537;45.594;9.294;2024-02-26T00:51:10;98741.88;;;9.17;91.12
18819;BME280;9537;45.594;9.294;2024-02-26T00:52:12;98741.72;;;9.19;90.68
18819;BME280;9537;45.594;9.294;2024-02-26T00:53:13;98735.59;;;9.18;90.87
18819;BME280;9537;45.594;9.294;2024-02-26T00:54:15;98742.69;;;9.18;90.72
18819;BME280;9537;45.594;9.294;2024-02-26T00:55:16;98726.06;;;9.17;90.53
18819;BME280;9537;45.594;9.294;2024-02-26T00:56:18;98727.09;;;9.16;90.44
18819;BME280;9537;45.594;9.294;2024-02-26T00:57:18;98728.06;;;9.15;90.04
18819;BME280;9537;45.594;9.294;2024-02-26T00:58:20;98736.97;;;9.14;90.12
18819;BME280;9537;45.594;9.294;2024-02-26T00:59:24;98731.28;;;9.11;90.14
18819;BME280;9537;45.594;9.294;2024-02-26T01:00:26;98725.63;;;9.14;90.45
18819;BME280;9537;45.594;9.294;2024-02-26T01:01:28;98727.47;;;9.13;90.19
18819;BME280;9537;45.594;9.294;2024-02-26T01:02:29;98725.81;;;9.12;90.38
18819;BME280;9537;45.594;9.294;2024-02-26T01:03:31;98726.63;;;9.13;90.40
18819;BME280;9537;45.594;9.294;2024-02-26T01:04:31;98732.72;;;9.13;90.07
18819;BME280;9537;45.594;9.294;2024-02-26T01:05:34;98725.00;;;9.12;90.06
18819;BME280;9537;45.594;9.294;2024-02-26T01:06:36;98728.66;;;9.11;90.32
18819;BME280;9537;45.594;9.294;2024-02-26T01:07:37;98735.53;;;9.12;90.37
18819;BME280;9537;45.594;9.294;2024-02-26T01:08:39;98722.75;;;9.09;90.76
18819;BME280;9537;45.594;9.294;2024-02-26T01:09:40;98727.00;;;9.10;90.57
18819;BME280;9537;45.594;9.294;2024-02-26T01:10:42;98726.38;;;9.08;90.52
18819;BME280;9537;45.594;9.294;2024-02-26T01:11:42;98722.75;;;9.09;90.60
18819;BME280;9537;45.594;9.294;2024-02-26T01:12:44;98720.75;;;9.11;90.41
18819;BME280;9537;45.594;9.294;2024-02-26T01:13:45;98720.91;;;9.09;90.53
18819;BME280;9537;45.594;9.294;2024-02-26T01:14:47;98714.66;;;9.10;90.29
18819;BME280;9537;45.594;9.294;2024-02-26T01:15:49;98715.47;;;9.11;90.27
18819;BME280;9537;45.594;9.294;2024-02-26T01:16:51;98715.66;;;9.09;90.24
18819;BME280;9537;45.594;9.294;2024-02-26T01:17:52;98710.56;;;9.08;90.18
18819;BME280;9537;45.594;9.294;2024-02-26T01:18:53;98713.22;;;9.08;90.33
18819;BME280;9537;45.594;9.294;2024-02-26T01:19:55;98710.75;;;9.06;90.62
18819;BME280;9537;45.594;9.294;2024-02-26T01:20:55;98697.56;;;9.06;90.26
18819;BME280;9537;45.594;9.294;2024-02-26T01:21:57;98698.59;;;9.05;90.22
18819;BME280;9537;45.594;9.294;2024-02-26T01:22:58;98702.22;;;9.04;90.15
18819;BME280;9537;45.594;9.294;2024-02-26T01:24:00;98704.03;;;9.03;90.11
18819;BME280;9537;45.594;9.294;2024-02-26T01:25:00;98702.59;;;9.01;90.71
18819;BME280;9537;45.594;9.294;2024-02-26T01:26:02;98694.88;;;8.99;90.73
18819;BME280;9537;45.594;9.294;2024-02-26T01:27:05;98700.31;;;8.98;90.81
18819;BME280;9537;45.594;9.294;2024-02-26T01:28:08;98701.13;;;8.98;91.21
18819;BME280;9537;45.594;9.294;2024-02-26T01:29:09;98699.34;;;8.99;90.93
18819;BME280;9537;45.594;9.294;2024-02-26T01:30:14;98704.59;;;8.99;91.19
18819;BME280;9537;45.594;9.294;2024-02-26T01:31:18;98707.25;;;8.99;91.33
18819;BME280;9537;45.594;9.294;2024-02-26T01:32:19;98694.25;;;8.97;91.09
18819;BME280;9537;45.594;9.294;2024-02-26T01:33:20;98696.88;;;8.97;91.00
18819;BME280;9537;45.594;9.294;2024-02-26T01:34:22;98694.44;;;8.96;91.28
18819;BME280;9537;45.594;9.294;2024-02-26T01:35:23;98690.16;;;8.95;91.21
18819;BME280;9537;45.594;9.294;2024-02-26T01:36:25;98695.06;;;8.98;90.75
18819;BME280;9537;45.594;9.294;2024-02-26T01:37:26;98688.97;;;8.97;90.99
18819;BME280;9537;45.594;9.294;2024-02-26T01:38:26;98688.16;;;8.97;91.27
18819;BME280;9537;45.594;9.294;2024-02-26T01:39:29;98685.34;;;8.98;90.57
18819;BME280;9537;45.594;9.294;2024-02-26T01:40:30;98677.44;;;8.98;90.75
18819;BME280;9537;45.594;9.294;2024-02-26T01:41:32;98682.91;;;8.97;90.93
18819;BME280;9537;45.594;9.294;2024-02-26T01:42:33;98676.19;;;8.94;91.14
18819;BME280;9537;45.594;9.294;2024-02-26T01:43:35;98683.06;;;8.95;91.06
18819;BME280;9537;45.594;9.294;2024-02-26T01:44:35;98683.06;;;8.95;91.02
18819;BME280;9537;45.594;9.294;2024-02-26T01:45:38;98680.63;;;8.94;90.95
18819;BME280;9537;45.594;9.294;2024-02-26T01:46:40;98673.56;;;8.94;90.26
18819;BME280;9537;45.594;9.294;2024-02-26T01:47:42;98671.72;;;8.95;90.52
18819;BME280;9537;45.594;9.294;2024-02-26T01:48:44;98671.56;;;8.96;90.52
18819;BME280;9537;45.594;9.294;2024-02-26T01:49:47;98674.38;;;8.95;90.58
18819;BME280;9537;45.594;9.294;2024-02-26T01:50:48;98677.81;;;8.95;90.72
18819;BME280;9537;45.594;9.294;2024-02-26T01:51:49;98676.19;;;8.94;90.72
18819;BME280;9537;45.594;9.294;2024-02-26T01:52:51;98676.00;;;8.96;90.18
18819;BME280;9537;45.594;9.294;2024-02-26T01:53:55;98676.19;;;8.94;90.04
18819;BME280;9537;45.594;9.294;2024-02-26T01:54:57;98676.38;;;8.93;89.83
18819;BME280;9537;45.594;9.294;2024-02-26T01:55:58;98675.53;;;8.92;90.53
18819;BME280;9537;45.594;9.294;2024-02-26T01:57:00;98664.84;;;8.94;90.14
18819;BME280;9537;45.594;9.294;2024-02-26T01:58:02;98664.84;;;8.94;90.10
18819;BME280;9537;45.594;9.294;2024-02-26T01:59:04;98669.91;;;8.95;90.28
18819;BME280;9537;45.594;9.294;2024-02-26T02:00:07;98664.63;;;8.95;90.01
18819;BME280;9537;45.594;9.294;2024-02-26T02:01:08;98661.41;;;8.93;90.02
18819;BME280;9537;45.594;9.294;2024-02-26T02:02:11;98663.22;;;8.93;89.56
18819;BME280;9537;45.594;9.294;2024-02-26T02:03:13;98662.22;;;8.94;89.86
18819;BME280;9537;45.594;9.294;2024-02-26T02:04:15;98660.38;;;8.94;89.60
18819;BME280;9537;45.594;9.294;2024-02-26T02:05:17;98653.50;;;8.93;89.63
18819;BME280;9537;45.594;9.294;2024-02-26T02:06:18;98658.38;;;8.96;89.14
18819;BME280;9537;45.594;9.294;2024-02-26T02:07:21;98656.72;;;8.95;88.72
18819;BME280;9537;45.594;9.294;2024-02-26T02:08:23;98655.94;;;8.95;88.77
18819;BME280;9537;45.594;9.294;2024-02-26T02:09:26;98651.66;;;8.94;88.73
18819;BME280;9537;45.594;9.294;2024-02-26T02:10:27;98652.84;;;8.91;89.06
18819;BME280;9537;45.594;9.294;2024-02-26T02:11:28;98651.84;;;8.92;89.52
18819;BME280;9537;45.594;9.294;2024-02-26T02:12:30;98646.94;;;8.89;89.63
18819;BME280;9537;45.594;9.294;2024-02-26T02:13:33;98648.59;;;8.90;89.74
18819;BME280;9537;45.594;9.294;2024-02-26T02:14:35;98650.41;;;8.90;89.88
18819;BME280;9537;45.594;9.294;2024-02-26T02:15:36;98647.59;;;8.91;90.03
18819;BME280;9537;45.594;9.294;2024-02-26T02:16:37;98645.78;;;8.92;89.88
18819;BME280;9537;45.594;9.294;2024-02-26T02:17:39;98648.22;;;8.93;89.57
18819;BME280;9537;45.594;9.294;2024-02-26T02:18:41;98640.72;;;8.90;89.66
18819;BME280;9537;45.594;9.294;2024-02-26T02:19:42;98644.31;;;8.89;89.55
18819;BME280;9537;45.594;9.294;2024-02-26T02:20:45;98639.06;;;8.89;89.76
18819;BME280;9537;45.594;9.294;2024-02-26T02:21:46;98645.13;;;8.90;89.68
18819;BME280;9537;45.594;9.294;2024-02-26T02:22:47;98640.72;;;8.90;89.55
18819;BME280;9537;45.594;9.294;2024-02-26T02:23:48;98635.59;;;8.89;89.68
18819;BME280;9537;45.594;9.294;2024-02-26T02:24:52;98632.97;;;8.89;90.00
18819;BME280;9537;45.594;9.294;2024-02-26T02:25:53;98635.22;;;8.92;89.82
18819;BME280;9537;45.594;9.294;2024-02-26T02:26:56;98632.97;;;8.89;89.08
18819;BME280;9537;45.594;9.294;2024-02-26T02:27:56;98637.44;;;8.88;89.06
18819;BME280;9537;45.594;9.294;2024-02-26T02:28:59;98632.81;;;8.90;88.77
18819;BME280;9537;45.594;9.294;2024-02-26T02:30:01;98641.69;;;8.89;88.78
18819;BME280;9537;45.594;9.294;2024-02-26T02:31:03;98633.34;;;8.86;88.99
18819;BME280;9537;45.594;9.294;2024-02-26T02:32:05;98631.53;;;8.86;89.37
18819;BME280;9537;45.594;9.294;2024-02-26T02:33:07;98628.91;;;8.86;89.18
18819;BME280;9537;45.594;9.294;2024-02-26T02:34:09;98628.09;;;8.86;88.98
18819;BME280;9537;45.594;9.294;2024-02-26T02:35:10;98627.91;;;8.87;89.00
18819;BME280;9537;45.594;9.294;2024-02-26T02:36:13;98623.00;;;8.84;89.11
18819;BME280;9537;45.594;9.294;2024-02-26T02:37:14;98613.09;;;8.86;89.10
18819;BME280;9537;45.594;9.294;2024-02-26T02:38:16;98617.56;;;8.86;88.92
18819;BME280;9537;45.594;9.294;2024-02-26T02:39:17;98615.72;;;8.86;88.67
18819;BME280;9537;45.594;9.294;2024-02-26T02:40:19;98614.09;;;8.85;88.89
18819;BME280;9537;45.594;9.294;2024-02-26T02:41:19;98618.56;;;8.85;88.71
18819;BME280;9537;45.594;9.294;2024-02-26T02:42:22;98608.03;;;8.85;88.56
18819;BME280;9537;45.594;9.294;2024-02-26T02:43:22;98614.28;;;8.84;88.97
18819;BME280;9537;45.594;9.294;2024-02-26T02:44:24;98608.84;;;8.85;88.67
18819;BME280;9537;45.594;9.294;2024-02-26T02:45:25;98612.47;;;8.84;88.84
18819;BME280;9537;45.594;9.294;2024-02-26T02:46:27;98615.09;;;8.84;89.05
18819;BME280;9537;45.594;9.294;2024-02-26T02:47:28;98611.28;;;8.87;89.09
18819;BME280;9537;45.594;9.294;2024-02-26T02:48:29;98611.47;;;8.85;88.85
18819;BME280;9537;45.594;9.294;2024-02-26T02:49:30;98602.78;;;8.85;88.67
18819;BME280;9537;45.594;9.294;2024-02-26T02:50:32;98601.13;;;8.84;88.65
18819;BME280;9537;45.594;9.294;2024-02-26T02:51:34;98607.19;;;8.84;88.68
18819;BME280;9537;45.594;9.294;2024-02-26T02:52:36;98601.13;;;8.84;88.71
18819;BME280;9537;45.594;9.294;2024-02-26T02:53:37;98611.84;;;8.82;88.28
18819;BME280;9537;45.594;9.294;2024-02-26T02:54:38;98615.28;;;8.83;88.58
18819;BME280;9537;45.594;9.294;2024-02-26T02:55:41;98609.38;;;8.80;88.67
18819;BME280;9537;45.594;9.294;2024-02-26T02:56:43;98612.03;;;8.80;88.52
18819;BME280;9537;45.594;9.294;2024-02-26T02:57:44;98612.03;;;8.80;88.71
18819;BME280;9537;45.594;9.294;2024-02-26T02:58:46;98612.66;;;8.83;88.30
18819;BME280;9537;45.594;9.294;2024-02-26T02:59:46;98609.22;;;8.82;88.26
18819;BME280;9537;45.594;9.294;2024-02-26T03:00:47;98616.09;;;8.83;88.26
18819;BME280;9537;45.594;9.294;2024-02-26T03:01:49;98610.03;;;8.83;88.39
18819;BME280;9537;45.594;9.294;2024-02-26T03:02:50;98614.47;;;8.82;88.18
18819;BME280;9537;45.594;9.294;2024-02-26T03:03:52;98623.38;;;8.81;88.11
18819;BME280;9537;45.594;9.294;2024-02-26T03:04:52;98625.19;;;8.80;88.48
18819;BME280;9537;45.594;9.294;2024-02-26T03:05:54;98621.75;;;8.80;88.70
18819;BME280;9537;45.594;9.294;2024-02-26T03:06:57;98619.91;;;8.80;88.55
18819;BME280;9537;45.594;9.294;2024-02-26T03:07:58;98615.47;;;8.81;88.79
18819;BME280;9537;45.594;9.294;2024-02-26T03:09:00;98614.66;;;8.80;88.41
18819;BME280;9537;45.594;9.294;2024-02-26T03:10:01;98612.84;;;8.81;88.75
18819;BME280;9537;45.594;9.294;2024-02-26T03:11:03;98610.03;;;8.83;88.53
18819;BME280;9537;45.594;9.294;2024-02-26T03:12:04;98602.13;;;8.83;88.35
18819;BME280;9537;45.594;9.294;2024-02-26T03:13:06;98592.41;;;8.83;88.47
18819;BME280;9537;45.594;9.294;2024-02-26T03:14:07;98596.22;;;8.80;88.32
18819;BME280;9537;45.594;9.294;2024-02-26T03:15:09;98584.88;;;8.80;88.57
18819;BME280;9537;45.594;9.294;2024-02-26T03:16:11;98598.06;;;8.80;88.19
18819;BME280;9537;45.594;9.294;2024-02-26T03:17:13;98597.03;;;8.81;88.57
18819;BME280;9537;45.594;9.294;2024-02-26T03:18:14;98594.41;;;8.81;88.34
18819;BME280;9537;45.594;9.294;2024-02-26T03:19:16;98594.41;;;8.81;88.34
18819;BME280;9537;45.594;9.294;2024-02-26T03:20:18;98596.22;;;8.80;88.30
18819;BME280;9537;45.594;9.294;2024-02-26T03:21:20;98602.31;;;8.81;88.48
18819;BME280;9537;45.594;9.294;2024-02-26T03:22:23;98606.75;;;8.80;88.73
18819;BME280;9537;45.594;9.294;2024-02-26T03:23:25;98599.88;;;8.79;88.66
18819;BME280;9537;45.594;9.294;2024-02-26T03:24:28;98599.88;;;8.79;88.85
18819;BME280;9537;45.594;9.294;2024-02-26T03:25:31;98599.06;;;8.79;89.10
18819;BME280;9537;45.594;9.294;2024-02-26T03:26:31;98602.69;;;8.78;88.59
18819;BME280;9537;45.594;9.294;2024-02-26T03:27:33;98600.25;;;8.76;88.63
18819;BME280;9537;45.594;9.294;2024-02-26T03:28:34;98603.69;;;8.77;88.54
18819;BME280;9537;45.594;9.294;2024-02-26T03:29:36;98603.06;;;8.75;89.08
18819;BME280;9537;45.594;9.294;2024-02-26T03:30:37;98594.16;;;8.76;88.93
18819;BME280;9537;45.594;9.294;2024-02-26T03:31:39;98605.88;;;8.73;88.70
18819;BME280;9537;45.594;9.294;2024-02-26T03:32:40;98600.25;;;8.76;88.76
18819;BME280;9537;45.594;9.294;2024-02-26T03:33:41;98597.41;;;8.78;88.90
18819;BME280;9537;45.594;9.294;2024-02-26T03:34:42;98592.34;;;8.76;89.25
18819;BME280;9537;45.594;9.294;2024-02-26T03:35:43;98595.34;;;8.73;89.20
18819;BME280;9537;45.594;9.294;2024-02-26T03:36:47;98597.19;;;8.73;89.62
18819;BME280;9537;45.594;9.294;2024-02-26T03:37:49;98602.06;;;8.76;89.35
18819;BME280;9537;45.594;9.294;2024-02-26T03:38:52;98598.44;;;8.77;89.34
18819;BME280;9537;45.594;9.294;2024-02-26T03:39:52;98595.97;;;8.75;89.26
18819;BME280;9537;45.594;9.294;2024-02-26T03:40:53;98600.41;;;8.75;89.36
18819;BME280;9537;45.594;9.294;2024-02-26T03:41:55;98603.88;;;8.75;89.50
18819;BME280;9537;45.594;9.294;2024-02-26T03:42:57;98605.69;;;8.75;89.53
18819;BME280;9537;45.594;9.294;2024-02-26T03:43:59;98598.81;;;8.74;90.17
18819;BME280;9537;45.594;9.294;2024-02-26T03:45:00;98603.25;;;8.73;90.05
18819;BME280;9537;45.594;9.294;2024-02-26T03:46:01;98597.19;;;8.73;90.53
18819;BME280;9537;45.594;9.294;2024-02-26T03:47:03;98600.63;;;8.73;90.53
18819;BME280;9537;45.594;9.294;2024-02-26T03:48:05;98589.28;;;8.73;90.34
18819;BME280;9537;45.594;9.294;2024-02-26T03:49:05;98585.81;;;8.72;90.62
18819;BME280;9537;45.594;9.294;2024-02-26T03:50:08;98591.91;;;8.73;90.45
18819;BME280;9537;45.594;9.294;2024-02-26T03:51:09;98586.66;;;8.73;90.76
18819;BME280;9537;45.594;9.294;2024-02-26T03:52:11;98585.63;;;8.74;90.76
18819;BME280;9537;45.594;9.294;2024-02-26T03:53:13;98584.03;;;8.73;90.79
18819;BME280;9537;45.594;9.294;2024-02-26T03:54:15;98586.66;;;8.73;90.28
18819;BME280;9537;45.594;9.294;2024-02-26T03:55:16;98587.63;;;8.72;90.65
18819;BME280;9537;45.594;9.294;2024-02-26T03:56:21;98582.38;;;8.72;90.54
18819;BME280;9537;45.594;9.294;2024-02-26T03:57:22;98579.72;;;8.72;90.65
18819;BME280;9537;45.594;9.294;2024-02-26T03:58:24;98570.84;;;8.73;90.37
18819;BME280;9537;45.594;9.294;2024-02-26T03:59:25;98579.94;;;8.70;90.33
18819;BME280;9537;45.594;9.294;2024-02-26T04:00:27;98574.69;;;8.70;90.60
18819;BME280;9537;45.594;9.294;2024-02-26T04:01:30;98572.22;;;8.69;90.58
18819;BME280;9537;45.594;9.294;2024-02-26T04:02:33;98577.31;;;8.70;90.61
18819;BME280;9537;45.594;9.294;2024-02-26T04:03:33;98578.13;;;8.71;90.63
18819;BME280;9537;45.594;9.294;2024-02-26T04:04:35;98582.56;;;8.70;90.70
18819;BME280;9537;45.594;9.294;2024-02-26T04:05:36;98575.50;;;8.71;90.86
18819;BME280;9537;45.594;9.294;2024-02-26T04:06:37;98573.66;;;8.71;90.47
18819;BME280;9537;45.594;9.294;2024-02-26T04:07:39;98570.22;;;8.71;90.15
18819;BME280;9537;45.594;9.294;2024-02-26T04:08:41;98564.16;;;8.70;90.40
18819;BME280;9537;45.594;9.294;2024-02-26T04:09:44;98569.22;;;8.72;90.38
18819;BME280;9537;45.594;9.294;2024-02-26T04:10:44;98566.56;;;8.72;90.21
18819;BME280;9537;45.594;9.294;2024-02-26T04:11:46;98570.41;;;8.69;90.18
18819;BME280;9537;45.594;9.294;2024-02-26T04:12:47;98571.56;;;8.67;90.08
18819;BME280;9537;45.594;9.294;2024-02-26T04:13:49;98561.06;;;8.67;89.94
18819;BME280;9537;45.594;9.294;2024-02-26T04:14:52;98562.69;;;8.68;89.89
18819;BME280;9537;45.594;9.294;2024-02-26T04:15:53;98560.06;;;8.68;89.98
18819;BME280;9537;45.594;9.294;2024-02-26T04:16:55;98555.78;;;8.67;89.53
18819;BME280;9537;45.594;9.294;2024-02-26T04:17:56;98553.16;;;8.67;89.25
18819;BME280;9537;45.594;9.294;2024-02-26T04:18:57;98552.16;;;8.68;89.45
18819;BME280;9537;45.594;9.294;2024-02-26T04:19:58;98557.44;;;8.68;89.38
18819;BME280;9537;45.594;9.294;2024-02-26T04:21:00;98549.72;;;8.66;88.74
18819;BME280;9537;45.594;9.294;2024-02-26T04:22:01;98554.53;;;8.63;88.78
18819;BME280;9537;45.594;9.294;2024-02-26T04:23:04;98558.19;;;8.62;89.24
18819;BME280;9537;45.594;9.294;2024-02-26T04:24:06;98555.72;;;8.60;88.55
18819;BME280;9537;45.594;9.294;2024-02-26T04:25:08;98563.44;;;8.62;88.81
18819;BME280;9537;45.594;9.294;2024-02-26T04:26:09;98563.44;;;8.62;88.85
18819;BME280;9537;45.594;9.294;2024-02-26T04:27:11;98561.19;;;8.59;88.68
18819;BME280;9537;45.594;9.294;2024-02-26T04:28:11;98568.88;;;8.60;88.42
18819;BME280;9537;45.594;9.294;2024-02-26T04:29:13;98578.78;;;8.58;88.62
18819;BME280;9537;45.594;9.294;2024-02-26T04:30:14;98576.16;;;8.58;88.81
18819;BME280;9537;45.594;9.294;2024-02-26T04:31:17;98572.31;;;8.61;88.61
18819;BME280;9537;45.594;9.294;2024-02-26T04:32:18;98590.16;;;8.59;88.19
18819;BME280;9537;45.594;9.294;2024-02-26T04:33:20;98587.31;;;8.60;88.54
18819;BME280;9537;45.594;9.294;2024-02-26T04:34:20;98587.31;;;8.60;88.01
18819;BME280;9537;45.594;9.294;2024-02-26T04:35:22;98582.69;;;8.62;88.00
18819;BME280;9537;45.594;9.294;2024-02-26T04:36:23;98586.31;;;8.61;87.84
18819;BME280;9537;45.594;9.294;2024-02-26T04:37:26;98583.88;;;8.60;87.64
18819;BME280;9537;45.594;9.294;2024-02-26T04:38:31;98584.03;;;8.58;88.14
18819;BME280;9537;45.594;9.294;2024-02-26T04:39:34;98577.59;;;8.61;88.01
18819;BME280;9537;45.594;9.294;2024-02-26T04:40:35;98576.63;;;8.62;87.37
18819;BME280;9537;45.594;9.294;2024-02-26T04:41:37;98578.41;;;8.61;87.53
18819;BME280;9537;45.594;9.294;2024-02-26T04:42:37;98574.97;;;8.61;87.74
18819;BME280;9537;45.594;9.294;2024-02-26T04:43:40;98577.41;;;8.62;87.45
18819;BME280;9537;45.594;9.294;2024-02-26T04:44:42;98578.59;;;8.60;87.54
18819;BME280;9537;45.594;9.294;2024-02-26T04:45:43;98580.59;;;8.57;87.18
18819;BME280;9537;45.594;9.294;2024-02-26T04:46:45;98578.16;;;8.56;87.71
18819;BME280;9537;45.594;9.294;2024-02-26T04:47:47;98574.69;;;8.55;87.80
18819;BME280;9537;45.594;9.294;2024-02-26T04:48:49;98576.34;;;8.56;87.89
18819;BME280;9537;45.594;9.294;2024-02-26T04:49:50;98578.59;;;8.60;87.75
18819;BME280;9537;45.594;9.294;2024-02-26T04:50:51;98572.53;;;8.59;87.58
18819;BME280;9537;45.594;9.294;2024-02-26T04:51:53;98573.34;;;8.60;87.35
18819;BME280;9537;45.594;9.294;2024-02-26T04:52:54;98570.50;;;8.61;87.77
18819;BME280;9537;45.594;9.294;2024-02-26T04:53:55;98568.06;;;8.60;87.74
18819;BME280;9537;45.594;9.294;2024-02-26T04:54:58;98573.50;;;8.58;87.49
18819;BME280;9537;45.594;9.294;2024-02-26T04:56:00;98575.59;;;8.63;87.56
18819;BME280;9537;45.594;9.294;2024-02-26T04:57:02;98580.88;;;8.63;87.59
18819;BME280;9537;45.594;9.294;2024-02-26T04:58:03;98568.72;;;8.62;87.63
18819;BME280;9537;45.594;9.294;2024-02-26T04:59:05;98574.16;;;8.60;87.62
18819;BME280;9537;45.594;9.294;2024-02-26T05:00:07;98565.25;;;8.61;88.38
18819;BME280;9537;45.594;9.294;2024-02-26T05:01:10;98578.59;;;8.60;87.63
18819;BME280;9537;45.594;9.294;2024-02-26T05:02:11;98578.59;;;8.60;88.35
18819;BME280;9537;45.594;9.294;2024-02-26T05:03:11;98579.41;;;8.60;87.96
18819;BME280;9537;45.594;9.294;2024-02-26T05:04:16;98574.97;;;8.61;88.22
18819;BME280;9537;45.594;9.294;2024-02-26T05:05:16;98574.16;;;8.60;88.26
18819;BME280;9537;45.594;9.294;2024-02-26T05:06:18;98575.97;;;8.60;87.99
18819;BME280;9537;45.594;9.294;2024-02-26T05:07:19;98573.97;;;8.62;87.65
18819;BME280;9537;45.594;9.294;2024-02-26T05:08:21;98578.41;;;8.61;87.99
18819;BME280;9537;45.594;9.294;2024-02-26T05:09:22;98582.69;;;8.62;88.10
18819;BME280;9537;45.594;9.294;2024-02-26T05:10:24;98572.97;;;8.63;87.72
18819;BME280;9537;45.594;9.294;2024-02-26T05:11:25;98575.59;;;8.63;87.88
18819;BME280;9537;45.594;9.294;2024-02-26T05:12:26;98576.78;;;8.60;87.62
18819;BME280;9537;45.594;9.294;2024-02-26T05:13:28;98577.97;;;8.57;87.92
18819;BME280;9537;45.594;9.294;2024-02-26T05:14:29;98575.72;;;8.54;87.88
18819;BME280;9537;45.594;9.294;2024-02-26T05:15:30;98577.53;;;8.54;88.48
18819;BME280;9537;45.594;9.294;2024-02-26T05:16:31;98576.53;;;8.55;88.24
18819;BME280;9537;45.594;9.294;2024-02-26T05:17:33;98578.34;;;8.54;88.28
18819;BME280;9537;45.594;9.294;2024-02-26T05:18:34;98587.03;;;8.55;88.68
18819;BME280;9537;45.594;9.294;2024-02-26T05:19:36;98586.25;;;8.54;88.20
18819;BME280;9537;45.594;9.294;2024-02-26T05:20:36;98581.78;;;8.55;88.07
18819;BME280;9537;45.594;9.294;2024-02-26T05:21:38;98582.97;;;8.52;88.65
18819;BME280;9537;45.594;9.294;2024-02-26T05:22:39;98582.34;;;8.50;88.92
18819;BME280;9537;45.594;9.294;2024-02-26T05:23:40;98582.53;;;8.49;88.71
18819;BME280;9537;45.594;9.294;2024-02-26T05:24:43;98582.34;;;8.50;88.99
18819;BME280;9537;45.594;9.294;2024-02-26T05:25:46;98593.06;;;8.49;89.02
18819;BME280;9537;45.594;9.294;2024-02-26T05:26:48;98593.88;;;8.49;89.01
18819;BME280;9537;45.594;9.294;2024-02-26T05:27:50;98585.00;;;8.50;88.67
18819;BME280;9537;45.594;9.294;2024-02-26T05:28:51;98591.88;;;8.51;89.04
18819;BME280;9537;45.594;9.294;2024-02-26T05:29:52;98589.88;;;8.53;88.64
18819;BME280;9537;45.594;9.294;2024-02-26T05:30:54;98592.50;;;8.53;88.92
18819;BME280;9537;45.594;9.294;2024-02-26T05:31:56;98588.06;;;8.54;88.98
18819;BME280;9537;45.594;9.294;2024-02-26T05:32:57;98590.69;;;8.54;88.42
18819;BME280;9537;45.594;9.294;2024-02-26T05:33:59;98589.88;;;8.53;88.38
18819;BME280;9537;45.594;9.294;2024-02-26T05:34:59;98595.31;;;8.52;89.04
18819;BME280;9537;45.594;9.294;2024-02-26T05:36:03;98596.50;;;8.49;89.09